sensor_id;sensor_type;location;lat;lon;timestamp;P1;durP1;ratioP1;P2;durP2;ratioP2
64459;SDS011;50828;53.756;21.140;2023-03-13T00:00:26;27.50;;;9.60;;
64459;SDS011;50828;53.756;21.140;2023-03-13T00:05:36;31.50;;;8.60;;
64459;SDS011;50828;53.756;21.140;2023-03-13T00:10:44;29.10;;;11.00;;
64459;SDS011;50828;53.756;21.140;2023-03-13T00:16:00;54.50;;;14.40;;
64459;SDS011;50828;53.756;21.140;2023-03-13T00:21:10;36.50;;;11.20;;
64459;SDS011;50828;53.756;21.140;2023-03-13T00:26:19;27.70;;;7.90;;
64459;SDS011;50828;53.756;21.140;2023-03-13T00:31:29;20.50;;;7.00;;
64459;SDS011;50828;53.756;21.140;2023-03-13T00:36:37;20.20;;;5.90;;
64459;SDS011;50828;53.756;21.140;2023-03-13T00:41:46;19.20;;;5.70;;
64459;SDS011;50828;53.756;21.140;2023-03-13T00:46:54;12.60;;;5.30;;
64459;SDS011;50828;53.756;21.140;2023-03-13T00:52:03;18.00;;;7.20;;
64459;SDS011;50828;53.756;21.140;2023-03-13T00:57:11;19.80;;;7.90;;
64459;SDS011;50828;53.756;21.140;2023-03-13T01:02:20;16.60;;;5.20;;
64459;SDS011;50828;53.756;21.140;2023-03-13T01:07:29;20.50;;;5.70;;
64459;SDS011;50828;53.756;21.140;2023-03-13T01:12:39;22.10;;;6.60;;
64459;SDS011;50828;53.756;21.140;2023-03-13T01:17:48;18.30;;;6.20;;
64459;SDS011;50828;53.756;21.140;2023-03-13T01:22:55;19.10;;;5.70;;
64459;SDS011;50828;53.756;21.140;2023-03-13T01:28:04;13.20;;;4.60;;
64459;SDS011;50828;53.756;21.140;2023-03-13T01:33:11;16.70;;;4.80;;
64459;SDS011;50828;53.756;21.140;2023-03-13T01:38:19;14.30;;;5.00;;
64459;SDS011;50828;53.756;21.140;2023-03-13T01:43:28;22.00;;;7.10;;
64459;SDS011;50828;53.756;21.140;2023-03-13T01:48:39;27.20;;;7.40;;
64459;SDS011;50828;53.756;21.140;2023-03-13T01:53:52;24.80;;;8.60;;
64459;SDS011;50828;53.756;21.140;2023-03-13T01:59:08;23.80;;;7.80;;
64459;SDS011;50828;53.756;21.140;2023-03-13T02:04:18;22.20;;;8.90;;
64459;SDS011;50828;53.756;21.140;2023-03-13T02:09:29;20.00;;;7.70;;
64459;SDS011;50828;53.756;21.140;2023-03-13T02:14:40;23.30;;;7.90;;
64459;SDS011;50828;53.756;21.140;2023-03-13T02:19:52;24.40;;;8.60;;
64459;SDS011;50828;53.756;21.140;2023-03-13T02:25:01;20.20;;;6.80;;
64459;SDS011;50828;53.756;21.140;2023-03-13T02:30:17;21.70;;;7.30;;
64459;SDS011;50828;53.756;21.140;2023-03-13T02:35:26;19.50;;;6.80;;
64459;SDS011;50828;53.756;21.140;2023-03-13T02:40:37;18.10;;;7.00;;
64459;SDS011;50828;53.756;21.140;2023-03-13T02:46:01;20.10;;;7.60;;
64459;SDS011;50828;53.756;21.140;2023-03-13T02:51:15;26.40;;;9.70;;
64459;SDS011;50828;53.756;21.140;2023-03-13T02:56:29;19.20;;;7.70;;
64459;SDS011;50828;53.756;21.140;2023-03-13T03:01:39;24.40;;;8.70;;
64459;SDS011;50828;53.756;21.140;2023-03-13T03:06:46;26.30;;;9.20;;
64459;SDS011;50828;53.756;21.140;2023-03-13T03:11:55;25.70;;;7.70;;
64459;SDS011;50828;53.756;21.140;2023-03-13T03:17:03;27.20;;;9.30;;
64459;SDS011;50828;53.756;21.140;2023-03-13T03:22:11;17.10;;;8.10;;
64459;SDS011;50828;53.756;21.140;2023-03-13T03:27:19;26.60;;;8.30;;
64459;SDS011;50828;53.756;21.140;2023-03-13T03:32:29;20.40;;;7.00;;
64459;SDS011;50828;53.756;21.140;2023-03-13T03:37:37;18.90;;;7.40;;
64459;SDS011;50828;53.756;21.140;2023-03-13T03:42:45;18.00;;;7.70;;
64459;SDS011;50828;53.756;21.140;2023-03-13T03:47:54;23.70;;;10.40;;
64459;SDS011;50828;53.756;21.140;2023-03-13T03:53:06;22.20;;;8.60;;
64459;SDS011;50828;53.756;21.140;2023-03-13T04:03:36;26.00;;;9.70;;
64459;SDS011;50828;53.756;21.140;2023-03-13T04:08:45;24.80;;;9.30;;
64459;SDS011;50828;53.756;21.140;2023-03-13T04:13:56;21.40;;;8.80;;
64459;SDS011;50828;53.756;21.140;2023-03-13T04:19:04;22.20;;;8.30;;
64459;SDS011;50828;53.756;21.140;2023-03-13T04:24:11;22.10;;;8.00;;
64459;SDS011;50828;53.756;21.140;2023-03-13T04:29:20;24.70;;;10.10;;
64459;SDS011;50828;53.756;21.140;2023-03-13T04:34:45;22.90;;;9.90;;
64459;SDS011;50828;53.756;21.140;2023-03-13T04:40:05;23.70;;;9.90;;
64459;SDS011;50828;53.756;21.140;2023-03-13T04:45:32;22.10;;;9.30;;
64459;SDS011;50828;53.756;21.140;2023-03-13T04:50:58;27.30;;;10.20;;
64459;SDS011;50828;53.756;21.140;2023-03-13T04:56:28;25.60;;;9.80;;
64459;SDS011;50828;53.756;21.140;2023-03-13T05:02:22;22.60;;;10.00;;
64459;SDS011;50828;53.756;21.140;2023-03-13T05:07:49;28.80;;;9.90;;
64459;SDS011;50828;53.756;21.140;2023-03-13T05:13:33;25.00;;;10.10;;
64459;SDS011;50828;53.756;21.140;2023-03-13T05:18:52;23.70;;;9.10;;
64459;SDS011;50828;53.756;21.140;2023-03-13T05:24:36;26.00;;;10.50;;
64459;SDS011;50828;53.756;21.140;2023-03-13T05:30:03;26.60;;;10.80;;
64459;SDS011;50828;53.756;21.140;2023-03-13T05:35:30;27.70;;;11.20;;
64459;SDS011;50828;53.756;21.140;2023-03-13T05:40:57;22.80;;;10.20;;
64459;SDS011;50828;53.756;21.140;2023-03-13T05:46:23;24.60;;;11.30;;
64459;SDS011;50828;53.756;21.140;2023-03-13T05:51:43;26.40;;;11.10;;
64459;SDS011;50828;53.756;21.140;2023-03-13T05:57:11;28.60;;;12.00;;
64459;SDS011;50828;53.756;21.140;2023-03-13T06:02:38;33.80;;;11.70;;
64459;SDS011;50828;53.756;21.140;2023-03-13T06:07:52;28.00;;;11.50;;
64459;SDS011;50828;53.756;21.140;2023-03-13T06:13:02;29.70;;;12.80;;
64459;SDS011;50828;53.756;21.140;2023-03-13T06:18:28;27.10;;;10.70;;
64459;SDS011;50828;53.756;21.140;2023-03-13T06:23:37;32.90;;;12.50;;
64459;SDS011;50828;53.756;21.140;2023-03-13T06:28:46;26.10;;;12.60;;
64459;SDS011;50828;53.756;21.140;2023-03-13T06:33:56;32.70;;;12.90;;
64459;SDS011;50828;53.756;21.140;2023-03-13T06:39:03;28.00;;;13.10;;
64459;SDS011;50828;53.756;21.140;2023-03-13T06:44:11;35.10;;;13.30;;
64459;SDS011;50828;53.756;21.140;2023-03-13T06:49:20;27.80;;;13.10;;
64459;SDS011;50828;53.756;21.140;2023-03-13T06:54:28;31.30;;;12.60;;
64459;SDS011;50828;53.756;21.140;2023-03-13T06:59:37;32.40;;;13.30;;
64459;SDS011;50828;53.756;21.140;2023-03-13T07:04:46;31.50;;;13.20;;
64459;SDS011;50828;53.756;21.140;2023-03-13T07:09:54;37.30;;;13.80;;
64459;SDS011;50828;53.756;21.140;2023-03-13T07:15:04;36.20;;;13.00;;
64459;SDS011;50828;53.756;21.140;2023-03-13T07:20:13;41.80;;;15.20;;
64459;SDS011;50828;53.756;21.140;2023-03-13T07:25:22;37.90;;;15.70;;
64459;SDS011;50828;53.756;21.140;2023-03-13T07:30:31;46.80;;;18.50;;
64459;SDS011;50828;53.756;21.140;2023-03-13T07:35:40;51.70;;;18.10;;
64459;SDS011;50828;53.756;21.140;2023-03-13T07:40:53;45.00;;;16.50;;
64459;SDS011;50828;53.756;21.140;2023-03-13T07:46:03;48.00;;;17.50;;
64459;SDS011;50828;53.756;21.140;2023-03-13T07:51:14;43.10;;;17.30;;
64459;SDS011;50828;53.756;21.140;2023-03-13T07:56:34;49.80;;;17.20;;
64459;SDS011;50828;53.756;21.140;2023-03-13T08:01:41;42.20;;;17.70;;
64459;SDS011;50828;53.756;21.140;2023-03-13T08:06:50;36.10;;;14.40;;
64459;SDS011;50828;53.756;21.140;2023-03-13T08:11:59;39.20;;;15.60;;
64459;SDS011;50828;53.756;21.140;2023-03-13T08:17:07;31.80;;;14.30;;
64459;SDS011;50828;53.756;21.140;2023-03-13T08:22:16;38.00;;;15.00;;
64459;SDS011;50828;53.756;21.140;2023-03-13T08:27:24;35.30;;;13.70;;
64459;SDS011;50828;53.756;21.140;2023-03-13T08:32:34;26.40;;;12.60;;
64459;SDS011;50828;53.756;21.140;2023-03-13T08:37:43;25.20;;;12.60;;
64459;SDS011;50828;53.756;21.140;2023-03-13T08:42:52;28.00;;;12.20;;
64459;SDS011;50828;53.756;21.140;2023-03-13T08:48:00;26.80;;;11.50;;
64459;SDS011;50828;53.756;21.140;2023-03-13T08:53:08;24.80;;;12.10;;
64459;SDS011;50828;53.756;21.140;2023-03-13T08:58:16;27.10;;;11.60;;
64459;SDS011;50828;53.756;21.140;2023-03-13T09:03:25;25.10;;;12.30;;
64459;SDS011;50828;53.756;21.140;2023-03-13T09:08:33;23.60;;;11.10;;
64459;SDS011;50828;53.756;21.140;2023-03-13T09:13:43;26.10;;;11.40;;
64459;SDS011;50828;53.756;21.140;2023-03-13T09:18:53;26.00;;;12.00;;
64459;SDS011;50828;53.756;21.140;2023-03-13T09:24:02;24.10;;;11.50;;
64459;SDS011;50828;53.756;21.140;2023-03-13T09:29:10;28.40;;;12.00;;
64459;SDS011;50828;53.756;21.140;2023-03-13T09:34:19;24.80;;;10.90;;
64459;SDS011;50828;53.756;21.140;2023-03-13T09:39:29;23.60;;;11.80;;
64459;SDS011;50828;53.756;21.140;2023-03-13T09:44:37;24.20;;;11.30;;
64459;SDS011;50828;53.756;21.140;2023-03-13T09:55:00;23.90;;;11.10;;
64459;SDS011;50828;53.756;21.140;2023-03-13T10:00:21;28.40;;;12.20;;
64459;SDS011;50828;53.756;21.140;2023-03-13T10:05:33;26.10;;;12.00;;
64459;SDS011;50828;53.756;21.140;2023-03-13T10:10:43;30.80;;;11.90;;
64459;SDS011;50828;53.756;21.140;2023-03-13T10:15:55;27.50;;;11.80;;
64459;SDS011;50828;53.756;21.140;2023-03-13T10:21:15;31.10;;;13.10;;
64459;SDS011;50828;53.756;21.140;2023-03-13T10:26:24;29.70;;;12.50;;
64459;SDS011;50828;53.756;21.140;2023-03-13T10:31:34;28.30;;;14.10;;
64459;SDS011;50828;53.756;21.140;2023-03-13T10:36:44;30.60;;;13.40;;
64459;SDS011;50828;53.756;21.140;2023-03-13T10:41:57;30.10;;;13.90;;
64459;SDS011;50828;53.756;21.140;2023-03-13T10:47:14;36.10;;;15.10;;
64459;SDS011;50828;53.756;21.140;2023-03-13T10:52:31;34.10;;;14.70;;
64459;SDS011;50828;53.756;21.140;2023-03-13T11:03:00;29.50;;;13.10;;
64459;SDS011;50828;53.756;21.140;2023-03-13T11:13:40;40.00;;;14.90;;
64459;SDS011;50828;53.756;21.140;2023-03-13T11:18:53;36.10;;;15.90;;
64459;SDS011;50828;53.756;21.140;2023-03-13T11:24:19;41.10;;;16.20;;
64459;SDS011;50828;53.756;21.140;2023-03-13T11:29:33;39.70;;;15.80;;
64459;SDS011;50828;53.756;21.140;2023-03-13T11:34:53;39.50;;;16.00;;
64459;SDS011;50828;53.756;21.140;2023-03-13T11:40:05;39.10;;;16.80;;
64459;SDS011;50828;53.756;21.140;2023-03-13T11:45:35;40.70;;;17.20;;
64459;SDS011;50828;53.756;21.140;2023-03-13T11:51:03;37.40;;;16.80;;
64459;SDS011;50828;53.756;21.140;2023-03-13T11:56:24;36.50;;;17.30;;
64459;SDS011;50828;53.756;21.140;2023-03-13T12:01:42;40.00;;;17.20;;
64459;SDS011;50828;53.756;21.140;2023-03-13T12:06:57;41.40;;;17.70;;
64459;SDS011;50828;53.756;21.140;2023-03-13T12:12:14;40.20;;;17.80;;
64459;SDS011;50828;53.756;21.140;2023-03-13T12:17:30;38.40;;;17.20;;
64459;SDS011;50828;53.756;21.140;2023-03-13T12:22:43;35.80;;;18.00;;
64459;SDS011;50828;53.756;21.140;2023-03-13T12:28:00;42.20;;;19.00;;
64459;SDS011;50828;53.756;21.140;2023-03-13T12:33:23;33.30;;;17.40;;
64459;SDS011;50828;53.756;21.140;2023-03-13T12:38:37;32.50;;;16.60;;
64459;SDS011;50828;53.756;21.140;2023-03-13T12:43:51;34.10;;;17.40;;
64459;SDS011;50828;53.756;21.140;2023-03-13T12:55:26;33.80;;;16.80;;
64459;SDS011;50828;53.756;21.140;2023-03-13T13:00:56;30.20;;;17.30;;
64459;SDS011;50828;53.756;21.140;2023-03-13T13:06:11;28.80;;;17.40;;
64459;SDS011;50828;53.756;21.140;2023-03-13T13:11:42;33.80;;;15.80;;
64459;SDS011;50828;53.756;21.140;2023-03-13T13:16:55;29.70;;;16.50;;
64459;SDS011;50828;53.756;21.140;2023-03-13T13:28:02;30.40;;;15.50;;
64459;SDS011;50828;53.756;21.140;2023-03-13T13:33:36;29.70;;;15.60;;
64459;SDS011;50828;53.756;21.140;2023-03-13T13:38:46;27.10;;;13.90;;
64459;SDS011;50828;53.756;21.140;2023-03-13T13:49:52;29.30;;;12.90;;
64459;SDS011;50828;53.756;21.140;2023-03-13T14:00:15;33.20;;;17.70;;
64459;SDS011;50828;53.756;21.140;2023-03-13T14:05:28;42.50;;;19.80;;
64459;SDS011;50828;53.756;21.140;2023-03-13T14:10:38;31.80;;;16.30;;
64459;SDS011;50828;53.756;21.140;2023-03-13T14:15:47;28.80;;;14.10;;
64459;SDS011;50828;53.756;21.140;2023-03-13T14:20:57;24.30;;;13.50;;
64459;SDS011;50828;53.756;21.140;2023-03-13T14:26:09;27.30;;;13.70;;
64459;SDS011;50828;53.756;21.140;2023-03-13T14:31:25;22.90;;;12.90;;
64459;SDS011;50828;53.756;21.140;2023-03-13T14:36:46;24.40;;;12.60;;
64459;SDS011;50828;53.756;21.140;2023-03-13T14:42:05;29.90;;;12.90;;
64459;SDS011;50828;53.756;21.140;2023-03-13T14:47:19;26.10;;;12.90;;
64459;SDS011;50828;53.756;21.140;2023-03-13T14:52:29;28.50;;;12.20;;
64459;SDS011;50828;53.756;21.140;2023-03-13T14:57:39;28.60;;;12.90;;
64459;SDS011;50828;53.756;21.140;2023-03-13T15:08:32;29.30;;;12.00;;
64459;SDS011;50828;53.756;21.140;2023-03-13T15:13:42;25.40;;;12.00;;
64459;SDS011;50828;53.756;21.140;2023-03-13T15:18:51;30.30;;;11.40;;
64459;SDS011;50828;53.756;21.140;2023-03-13T15:24:01;26.70;;;11.70;;
64459;SDS011;50828;53.756;21.140;2023-03-13T15:29:16;24.60;;;11.40;;
64459;SDS011;50828;53.756;21.140;2023-03-13T15:34:25;25.90;;;11.00;;
64459;SDS011;50828;53.756;21.140;2023-03-13T15:39:33;25.70;;;10.60;;
64459;SDS011;50828;53.756;21.140;2023-03-13T15:44:42;26.50;;;10.90;;
64459;SDS011;50828;53.756;21.140;2023-03-13T15:49:49;26.20;;;11.90;;
64459;SDS011;50828;53.756;21.140;2023-03-13T15:54:58;22.10;;;9.40;;
64459;SDS011;50828;53.756;21.140;2023-03-13T16:00:09;21.40;;;9.10;;
64459;SDS011;50828;53.756;21.140;2023-03-13T16:05:23;22.50;;;9.70;;
64459;SDS011;50828;53.756;21.140;2023-03-13T16:10:33;21.30;;;9.10;;
64459;SDS011;50828;53.756;21.140;2023-03-13T16:15:42;22.40;;;9.00;;
64459;SDS011;50828;53.756;21.140;2023-03-13T16:20:50;23.40;;;9.00;;
64459;SDS011;50828;53.756;21.140;2023-03-13T16:25:58;20.90;;;9.10;;
64459;SDS011;50828;53.756;21.140;2023-03-13T16:31:06;21.10;;;9.20;;
64459;SDS011;50828;53.756;21.140;2023-03-13T16:36:21;26.50;;;9.00;;
64459;SDS011;50828;53.756;21.140;2023-03-13T16:41:32;22.70;;;9.80;;
64459;SDS011;50828;53.756;21.140;2023-03-13T16:46:41;22.40;;;8.90;;
64459;SDS011;50828;53.756;21.140;2023-03-13T16:52:12;20.60;;;8.40;;
64459;SDS011;50828;53.756;21.140;2023-03-13T16:57:22;23.90;;;8.70;;
64459;SDS011;50828;53.756;21.140;2023-03-13T17:02:31;20.90;;;8.80;;
64459;SDS011;50828;53.756;21.140;2023-03-13T17:07:42;21.50;;;8.50;;
64459;SDS011;50828;53.756;21.140;2023-03-13T17:12:50;17.70;;;8.60;;
64459;SDS011;50828;53.756;21.140;2023-03-13T17:17:59;13.90;;;7.90;;
64459;SDS011;50828;53.756;21.140;2023-03-13T17:23:08;14.70;;;7.50;;
64459;SDS011;50828;53.756;21.140;2023-03-13T17:28:16;15.80;;;7.80;;
64459;SDS011;50828;53.756;21.140;2023-03-13T17:33:23;15.50;;;8.50;;
64459;SDS011;50828;53.756;21.140;2023-03-13T17:38:32;14.20;;;6.60;;
64459;SDS011;50828;53.756;21.140;2023-03-13T17:43:40;16.20;;;7.90;;
64459;SDS011;50828;53.756;21.140;2023-03-13T17:48:50;15.60;;;8.40;;
64459;SDS011;50828;53.756;21.140;2023-03-13T17:53:59;15.40;;;7.50;;
64459;SDS011;50828;53.756;21.140;2023-03-13T17:59:09;12.90;;;7.60;;
64459;SDS011;50828;53.756;21.140;2023-03-13T18:04:20;10.50;;;6.70;;
64459;SDS011;50828;53.756;21.140;2023-03-13T18:09:29;13.00;;;6.60;;
64459;SDS011;50828;53.756;21.140;2023-03-13T18:14:37;13.80;;;7.10;;
64459;SDS011;50828;53.756;21.140;2023-03-13T18:19:45;10.20;;;6.00;;
64459;SDS011;50828;53.756;21.140;2023-03-13T18:24:54;8.90;;;5.60;;
64459;SDS011;50828;53.756;21.140;2023-03-13T18:30:05;7.70;;;5.60;;
64459;SDS011;50828;53.756;21.140;2023-03-13T18:35:20;11.10;;;6.50;;
64459;SDS011;50828;53.756;21.140;2023-03-13T18:40:29;12.70;;;6.80;;
64459;SDS011;50828;53.756;21.140;2023-03-13T18:45:38;9.10;;;5.40;;
64459;SDS011;50828;53.756;21.140;2023-03-13T18:50:47;15.90;;;5.90;;
64459;SDS011;50828;53.756;21.140;2023-03-13T18:55:55;12.20;;;6.00;;
64459;SDS011;50828;53.756;21.140;2023-03-13T19:01:07;9.60;;;5.30;;
64459;SDS011;50828;53.756;21.140;2023-03-13T19:06:20;11.40;;;5.50;;
64459;SDS011;50828;53.756;21.140;2023-03-13T19:11:29;13.50;;;5.90;;
64459;SDS011;50828;53.756;21.140;2023-03-13T19:16:39;11.90;;;6.50;;
64459;SDS011;50828;53.756;21.140;2023-03-13T19:21:51;9.10;;;6.00;;
64459;SDS011;50828;53.756;21.140;2023-03-13T19:27:01;12.60;;;6.30;;
64459;SDS011;50828;53.756;21.140;2023-03-13T19:32:12;15.50;;;8.20;;
64459;SDS011;50828;53.756;21.140;2023-03-13T19:37:21;18.60;;;7.90;;
64459;SDS011;50828;53.756;21.140;2023-03-13T19:42:30;13.70;;;7.90;;
64459;SDS011;50828;53.756;21.140;2023-03-13T19:47:39;15.60;;;9.10;;
64459;SDS011;50828;53.756;21.140;2023-03-13T19:52:47;16.40;;;9.10;;
64459;SDS011;50828;53.756;21.140;2023-03-13T19:57:56;19.90;;;10.00;;
64459;SDS011;50828;53.756;21.140;2023-03-13T20:03:06;13.70;;;9.10;;
64459;SDS011;50828;53.756;21.140;2023-03-13T20:08:14;16.30;;;9.60;;
64459;SDS011;50828;53.756;21.140;2023-03-13T20:13:23;18.80;;;10.70;;
64459;SDS011;50828;53.756;21.140;2023-03-13T20:18:32;15.80;;;10.20;;
64459;SDS011;50828;53.756;21.140;2023-03-13T20:23:40;21.30;;;12.90;;
64459;SDS011;50828;53.756;21.140;2023-03-13T20:28:50;20.40;;;11.90;;
64459;SDS011;50828;53.756;21.140;2023-03-13T20:34:00;24.90;;;12.20;;
64459;SDS011;50828;53.756;21.140;2023-03-13T20:39:08;23.00;;;11.40;;
64459;SDS011;50828;53.756;21.140;2023-03-13T20:44:17;25.30;;;11.80;;
64459;SDS011;50828;53.756;21.140;2023-03-13T20:49:25;22.00;;;11.30;;
64459;SDS011;50828;53.756;21.140;2023-03-13T20:54:34;26.40;;;11.70;;
64459;SDS011;50828;53.756;21.140;2023-03-13T20:59:42;22.20;;;10.80;;
64459;SDS011;50828;53.756;21.140;2023-03-13T21:04:50;20.20;;;10.60;;
64459;SDS011;50828;53.756;21.140;2023-03-13T21:09:59;23.80;;;10.80;;
64459;SDS011;50828;53.756;21.140;2023-03-13T21:15:09;21.10;;;11.60;;
64459;SDS011;50828;53.756;21.140;2023-03-13T21:20:19;22.60;;;10.70;;
64459;SDS011;50828;53.756;21.140;2023-03-13T21:25:27;23.30;;;10.60;;
64459;SDS011;50828;53.756;21.140;2023-03-13T21:30:37;22.80;;;10.90;;
64459;SDS011;50828;53.756;21.140;2023-03-13T21:35:47;21.80;;;9.80;;
64459;SDS011;50828;53.756;21.140;2023-03-13T21:40:56;24.10;;;11.10;;
64459;SDS011;50828;53.756;21.140;2023-03-13T21:46:08;26.30;;;11.30;;
64459;SDS011;50828;53.756;21.140;2023-03-13T21:56:23;20.90;;;10.80;;
64459;SDS011;50828;53.756;21.140;2023-03-13T22:01:31;20.90;;;10.10;;
64459;SDS011;50828;53.756;21.140;2023-03-13T22:06:39;19.40;;;10.00;;
64459;SDS011;50828;53.756;21.140;2023-03-13T22:11:48;22.10;;;10.10;;
64459;SDS011;50828;53.756;21.140;2023-03-13T22:16:56;21.10;;;10.50;;
64459;SDS011;50828;53.756;21.140;2023-03-13T22:22:04;24.10;;;9.80;;
64459;SDS011;50828;53.756;21.140;2023-03-13T22:27:13;22.50;;;10.50;;
64459;SDS011;50828;53.756;21.140;2023-03-13T22:32:23;20.40;;;10.10;;
64459;SDS011;50828;53.756;21.140;2023-03-13T22:37:33;19.60;;;9.70;;
64459;SDS011;50828;53.756;21.140;2023-03-13T22:42:41;18.80;;;10.40;;
64459;SDS011;50828;53.756;21.140;2023-03-13T22:47:49;20.40;;;8.10;;
64459;SDS011;50828;53.756;21.140;2023-03-13T22:52:57;21.90;;;10.10;;
64459;SDS011;50828;53.756;21.140;2023-03-13T22:58:05;21.50;;;10.50;;
64459;SDS011;50828;53.756;21.140;2023-03-13T23:03:13;22.20;;;9.90;;
64459;SDS011;50828;53.756;21.140;2023-03-13T23:08:22;18.40;;;9.50;;
64459;SDS011;50828;53.756;21.140;2023-03-13T23:13:30;26.70;;;10.00;;
64459;SDS011;50828;53.756;21.140;2023-03-13T23:18:40;17.10;;;8.90;;
64459;SDS011;50828;53.756;21.140;2023-03-13T23:23:48;20.50;;;9.90;;
64459;SDS011;50828;53.756;21.140;2023-03-13T23:29:00;20.00;;;9.10;;
64459;SDS011;50828;53.756;21.140;2023-03-13T23:34:07;20.20;;;9.50;;
64459;SDS011;50828;53.756;21.140;2023-03-13T23:39:15;20.20;;;9.30;;
64459;SDS011;50828;53.756;21.140;2023-03-13T23:44:22;23.30;;;10.40;;
64459;SDS011;50828;53.756;21.140;2023-03-13T23:49:30;19.80;;;9.40;;
64459;SDS011;50828;53.756;21.140;2023-03-13T23:54:39;22.30;;;10.30;;
64459;SDS011;50828;53.756;21.140;2023-03-13T23:59:47;20.00;;;10.50;;
